createdAt,value
2022-10-23T00:05:45.162Z,7.20
2022-10-23T00:11:48.158Z,6.97
2022-10-23T00:17:50.319Z,7.78
2022-10-23T00:23:52.493Z,8.02
2022-10-23T00:29:54.416Z,7.50
2022-10-23T00:35:56.307Z,8.23
2022-10-23T00:41:58.250Z,6.90
2022-10-23T00:48:01.790Z,7.60
2022-10-23T00:54:23.864Z,7.70
2022-10-23T01:00:41.473Z,8.00
2022-10-23T01:06:58.379Z,7.65
2022-10-23T01:13:14.975Z,6.78
2022-10-23T01:19:46.590Z,7.65
2022-10-23T01:25:54.415Z,7.88
2022-10-23T01:32:09.646Z,8.35
2022-10-23T01:38:17.442Z,7.90
2022-10-23T01:44:49.110Z,8.30
2022-10-23T01:50:53.260Z,7.70
2022-10-23T01:56:58.183Z,7.10
2022-10-23T02:03:04.614Z,7.43
2022-10-23T02:09:09.059Z,9.32
2022-10-23T02:15:35.915Z,9.18
2022-10-23T02:21:58.077Z,9.15
2022-10-23T02:28:05.062Z,8.07
2022-10-23T02:34:15.042Z,9.18
2022-10-23T02:40:17.037Z,8.07
2022-10-23T02:46:42.817Z,8.10
2022-10-23T02:53:12.701Z,7.97
2022-10-23T02:59:31.164Z,9.48
2022-10-23T03:05:38.075Z,8.00
2022-10-23T03:11:39.967Z,7.82
2022-10-23T03:17:42.133Z,8.05
2022-10-23T03:23:44.096Z,8.25
2022-10-23T03:29:51.247Z,7.73
2022-10-23T03:35:54.105Z,7.55
2022-10-23T03:41:56.065Z,7.57
2022-10-23T03:47:58.558Z,8.50
2022-10-23T03:54:00.666Z,7.68
2022-10-23T04:00:03.474Z,7.82
2022-10-23T04:06:07.878Z,7.07
2022-10-23T04:12:09.744Z,6.10
2022-10-23T04:18:11.688Z,6.25
2022-10-23T04:24:13.621Z,6.43
2022-10-23T04:30:15.547Z,10.77
2022-10-23T04:36:18.519Z,9.32
2022-10-23T04:42:20.376Z,9.73
2022-10-23T04:48:25.576Z,9.73
2022-10-23T04:54:48.632Z,10.77
2022-10-23T05:01:14.488Z,9.23
2022-10-23T05:07:16.968Z,10.40
2022-10-23T05:13:41.474Z,9.80
2022-10-23T05:19:52.639Z,9.82
2022-10-23T05:25:55.799Z,9.93
2022-10-23T05:32:02.823Z,9.90
2022-10-23T05:38:07.311Z,9.18
2022-10-23T05:44:09.460Z,9.30
2022-10-23T05:50:29.818Z,9.73
2022-10-23T05:56:52.423Z,9.43
2022-10-23T06:02:58.991Z,11.45
2022-10-23T06:09:16.455Z,11.13
2022-10-23T06:15:19.214Z,9.93
2022-10-23T06:21:47.396Z,7.95
2022-10-23T06:27:51.316Z,9.20
2022-10-23T06:33:54.301Z,8.90
2022-10-23T06:39:56.258Z,12.48
2022-10-23T06:46:10.873Z,11.90
2022-10-23T06:52:47.894Z,11.65
2022-10-23T06:58:52.628Z,11.63
2022-10-23T07:04:55.073Z,11.93
2022-10-23T07:10:57.156Z,9.88
2022-10-23T07:16:59.561Z,11.05
2022-10-23T07:23:02.963Z,7.40
2022-10-23T07:41:25.656Z,4.40
2022-10-23T07:47:28.006Z,4.38
2022-10-23T07:53:30.021Z,3.65
2022-10-23T07:59:55.101Z,3.40
2022-10-23T08:05:59.706Z,3.55
2022-10-23T08:12:02.268Z,4.10
2022-10-23T08:18:04.296Z,4.50
2022-10-23T08:24:14.287Z,4.40
2022-10-23T08:30:20.066Z,5.05
2022-10-23T08:36:24.012Z,5.05
2022-10-23T08:42:27.507Z,5.18
2022-10-23T08:48:44.135Z,4.35
2022-10-23T08:55:40.672Z,3.65
2022-10-23T09:01:55.977Z,3.40
2022-10-23T09:08:19.759Z,2.95
2022-10-23T09:14:43.422Z,2.95
2022-10-23T09:20:47.014Z,2.72
2022-10-23T09:26:53.131Z,2.60
2022-10-23T09:32:55.115Z,2.78
2022-10-23T09:38:59.506Z,2.47
2022-10-23T09:45:01.839Z,2.25
2022-10-23T09:51:18.907Z,2.40
2022-10-23T09:57:27.667Z,2.22
2022-10-23T10:03:29.788Z,2.03
2022-10-23T10:09:39.030Z,2.20
2022-10-23T10:15:50.727Z,2.03
2022-10-23T10:22:21.688Z,1.98
2022-10-23T10:28:30.577Z,2.58
2022-10-23T10:35:22.852Z,2.20
2022-10-23T10:41:53.051Z,1.77
2022-10-23T10:48:11.483Z,1.52
2022-10-23T10:55:03.477Z,1.48
2022-10-23T11:01:26.590Z,1.80
2022-10-23T11:07:35.104Z,1.58
2022-10-23T11:13:40.473Z,1.63
2022-10-23T11:19:51.106Z,1.33
2022-10-23T11:26:25.835Z,1.70
2022-10-23T11:32:52.605Z,1.40
2022-10-23T11:39:00.302Z,1.30
2022-10-23T11:45:02.208Z,1.42
2022-10-23T11:51:05.603Z,1.40
2022-10-23T11:57:10.371Z,1.70
2022-10-23T12:03:29.439Z,1.60
2022-10-23T12:10:00.180Z,1.70
2022-10-23T12:16:02.360Z,1.50
2022-10-23T12:22:04.199Z,1.50
2022-10-23T12:28:23.325Z,1.17
2022-10-23T12:34:58.144Z,1.52
2022-10-23T12:41:13.101Z,1.50
2022-10-23T12:47:21.466Z,1.38
2022-10-23T12:53:24.154Z,1.92
2022-10-23T12:59:36.314Z,1.77
2022-10-23T13:05:38.646Z,1.40
2022-10-23T13:11:40.666Z,1.67
2022-10-23T13:18:09.759Z,1.50
2022-10-23T13:24:21.335Z,3.70
2022-10-23T13:30:32.538Z,1.52
2022-10-23T13:36:39.545Z,1.52
2022-10-23T13:42:41.691Z,1.70
2022-10-23T13:48:44.097Z,1.60
2022-10-23T13:54:46.109Z,1.60
2022-10-23T14:00:49.780Z,1.50
2022-10-23T14:06:58.277Z,1.90
2022-10-23T14:13:00.092Z,1.80
2022-10-23T14:19:01.969Z,1.50
2022-10-23T14:25:04.458Z,1.55
2022-10-23T14:31:12.019Z,1.30
2022-10-23T14:37:13.844Z,1.40
2022-10-23T14:43:15.691Z,1.40
2022-10-23T14:49:17.588Z,1.50
2022-10-23T14:55:19.554Z,1.63
2022-10-23T15:01:21.540Z,1.40
2022-10-23T15:07:23.519Z,1.50
2022-10-23T15:13:25.314Z,1.63
2022-10-23T15:19:27.202Z,1.48
2022-10-23T15:25:29.097Z,1.52
2022-10-23T15:31:43.045Z,1.70
2022-10-23T15:37:45.144Z,1.70
2022-10-23T15:43:47.258Z,1.70
2022-10-23T15:49:49.109Z,1.50
2022-10-23T15:55:51.041Z,1.70
2022-10-23T16:01:53.370Z,1.77
2022-10-23T16:07:55.313Z,1.85
2022-10-23T16:13:58.830Z,1.80
2022-10-23T16:20:00.689Z,1.63
2022-10-23T16:26:05.981Z,1.85
2022-10-23T16:32:07.816Z,1.77
2022-10-23T16:38:09.753Z,1.92
2022-10-23T16:44:11.655Z,1.30
2022-10-23T16:50:23.819Z,1.60
2022-10-23T16:56:28.888Z,1.60
2022-10-23T17:02:30.793Z,1.80
2022-10-23T17:08:33.214Z,1.77
2022-10-23T17:14:35.094Z,1.67
2022-10-23T17:20:36.972Z,1.60
2022-10-23T17:26:39.724Z,1.88
2022-10-23T17:32:41.878Z,1.40
2022-10-23T17:38:44.692Z,1.70
2022-10-23T17:44:46.586Z,1.92
2022-10-23T17:50:48.433Z,2.15
2022-10-23T17:56:50.360Z,2.10
2022-10-23T18:02:52.492Z,1.60
2022-10-23T18:08:55.407Z,1.83
2022-10-23T18:14:57.248Z,2.42
2022-10-23T18:21:03.011Z,2.17
2022-10-23T18:27:04.920Z,1.95
2022-10-23T18:33:06.848Z,1.88
2022-10-23T18:39:11.821Z,1.95
2022-10-23T18:45:13.891Z,2.08
2022-10-23T18:51:22.043Z,2.30
2022-10-23T18:57:23.883Z,2.50
2022-10-23T19:03:25.753Z,2.50
2022-10-23T19:09:27.743Z,2.40
2022-10-23T19:15:30.185Z,2.38
2022-10-23T19:21:36.850Z,4.20
2022-10-23T19:27:40.526Z,2.45
2022-10-23T19:33:42.404Z,2.05
2022-10-23T19:39:44.216Z,2.03
2022-10-23T19:45:46.109Z,3.60
2022-10-23T19:51:51.296Z,3.90
2022-10-23T19:57:53.572Z,3.55
2022-10-23T20:03:55.654Z,3.10
2022-10-23T20:09:57.743Z,2.78
2022-10-23T20:15:59.647Z,2.78
2022-10-23T20:22:01.517Z,2.85
2022-10-23T20:28:03.880Z,3.47
2022-10-23T20:34:07.322Z,3.28
2022-10-23T20:40:09.730Z,3.40
2022-10-23T20:46:12.362Z,3.78
2022-10-23T20:52:14.518Z,4.00
2022-10-23T20:58:16.725Z,3.58
2022-10-23T21:04:21.429Z,3.15
2022-10-23T21:10:23.521Z,3.55
2022-10-23T21:16:28.639Z,3.90
2022-10-23T21:22:31.179Z,3.70
2022-10-23T21:28:33.967Z,3.60
2022-10-23T21:34:36.278Z,4.03
2022-10-23T21:40:41.155Z,5.03
2022-10-23T21:46:44.300Z,5.38
2022-10-23T21:52:51.659Z,5.15
2022-10-23T21:58:54.046Z,5.60
2022-10-23T22:04:56.622Z,5.57
2022-10-23T22:10:59.054Z,6.43
2022-10-23T22:17:01.324Z,5.53
2022-10-23T22:23:03.512Z,5.53
2022-10-23T22:29:12.656Z,5.00
2022-10-23T22:35:14.816Z,5.00
2022-10-23T22:41:18.569Z,4.35
2022-10-23T22:47:20.930Z,4.25
2022-10-23T22:53:23.442Z,4.20
2022-10-23T22:59:25.873Z,4.15
2022-10-23T23:05:28.184Z,4.30
2022-10-23T23:11:40.770Z,3.70
2022-10-23T23:17:53.832Z,4.40
2022-10-23T23:23:57.240Z,4.05
2022-10-23T23:29:59.535Z,4.18
2022-10-23T23:36:06.493Z,4.55
2022-10-23T23:42:09.110Z,4.43
2022-10-23T23:48:11.843Z,4.25
2022-10-23T23:54:14.571Z,4.45
